createdAt,value
2023-02-15T00:00:21.319Z,24.52
2023-02-15T00:02:49.925Z,27.08
2023-02-15T00:05:18.493Z,26.90
2023-02-15T00:07:47.062Z,26.27
2023-02-15T00:10:15.490Z,27.98
2023-02-15T00:12:44.094Z,31.63
2023-02-15T00:15:14.032Z,27.25
2023-02-15T00:17:42.371Z,28.13
2023-02-15T00:20:11.958Z,28.75
2023-02-15T00:22:40.290Z,27.63
2023-02-15T00:25:09.001Z,29.13
2023-02-15T00:27:37.348Z,27.85
2023-02-15T00:30:07.764Z,26.85
2023-02-15T00:32:37.445Z,30.95
2023-02-15T00:35:07.900Z,28.52
2023-02-15T00:37:36.267Z,28.50
2023-02-15T00:40:06.632Z,27.58
2023-02-15T00:42:35.009Z,27.08
2023-02-15T00:45:03.487Z,30.65
2023-02-15T00:47:31.891Z,28.45
2023-02-15T00:50:01.576Z,29.60
2023-02-15T00:52:30.002Z,29.45
2023-02-15T00:54:58.354Z,27.02
2023-02-15T00:57:26.769Z,28.70
2023-02-15T00:59:55.216Z,26.60
2023-02-15T01:02:23.749Z,25.98
2023-02-15T01:04:52.164Z,30.45
2023-02-15T01:07:21.747Z,22.45
2023-02-15T01:09:50.347Z,21.95
2023-02-15T01:12:18.646Z,24.73
2023-02-15T01:14:49.267Z,27.88
2023-02-15T01:17:17.643Z,27.58
2023-02-15T01:19:46.060Z,25.13
2023-02-15T01:22:14.345Z,27.55
2023-02-15T01:24:44.047Z,28.60
2023-02-15T01:27:12.369Z,25.15
2023-02-15T01:29:40.933Z,25.05
2023-02-15T01:32:09.344Z,25.85
2023-02-15T01:34:37.833Z,25.10
2023-02-15T01:37:06.453Z,28.20
2023-02-15T01:39:34.712Z,22.17
2023-02-15T01:42:05.408Z,28.38
2023-02-15T01:44:57.116Z,21.42
2023-02-15T01:47:34.482Z,23.90
2023-02-15T01:50:10.648Z,26.17
2023-02-15T01:52:44.069Z,27.27
2023-02-15T01:55:13.919Z,23.80
2023-02-15T01:57:45.773Z,21.88
2023-02-15T02:00:17.835Z,23.42
2023-02-15T02:02:53.833Z,22.70
2023-02-15T02:05:27.426Z,20.90
2023-02-15T02:07:59.920Z,23.17
2023-02-15T02:10:28.860Z,24.45
2023-02-15T02:13:05.203Z,22.17
2023-02-15T02:15:42.812Z,27.25
2023-02-15T02:18:26.022Z,22.85
2023-02-15T02:21:54.262Z,23.67
2023-02-15T02:25:01.426Z,21.30
2023-02-15T02:27:40.938Z,22.55
2023-02-15T02:30:37.100Z,21.35
2023-02-15T02:33:33.434Z,20.83
2023-02-15T02:36:14.978Z,22.48
2023-02-15T02:38:57.677Z,19.85
2023-02-15T02:41:34.945Z,21.02
2023-02-15T02:44:12.837Z,22.27
2023-02-15T02:46:51.144Z,23.95
2023-02-15T02:49:32.525Z,19.85
2023-02-15T02:52:03.297Z,19.67
2023-02-15T02:54:32.832Z,19.73
2023-02-15T02:57:06.161Z,20.60
2023-02-15T02:59:40.837Z,23.83
2023-02-15T03:02:14.302Z,23.02
2023-02-15T03:04:49.345Z,20.83
2023-02-15T03:07:23.013Z,22.23
2023-02-15T03:09:54.354Z,19.63
2023-02-15T03:12:26.525Z,25.88
2023-02-15T03:15:00.770Z,24.40
2023-02-15T03:17:34.082Z,20.73
2023-02-15T03:20:10.262Z,20.15
2023-02-15T03:22:43.961Z,19.25
2023-02-15T03:25:19.616Z,24.73
2023-02-15T03:27:53.069Z,18.60
2023-02-15T03:30:24.907Z,24.02
2023-02-15T03:32:55.208Z,21.27
2023-02-15T03:35:29.874Z,22.30
2023-02-15T03:38:03.325Z,21.40
2023-02-15T03:40:53.434Z,19.15
2023-02-15T03:43:31.258Z,20.42
2023-02-15T03:46:08.564Z,24.90
2023-02-15T03:48:42.664Z,20.80
2023-02-15T03:51:39.130Z,20.07
2023-02-15T03:54:10.877Z,22.20
2023-02-15T03:56:42.379Z,22.30
2023-02-15T03:59:28.201Z,20.38
2023-02-15T04:02:09.473Z,20.73
2023-02-15T04:04:39.688Z,18.65
2023-02-15T04:07:11.069Z,21.42
2023-02-15T04:09:57.190Z,18.75
2023-02-15T04:12:25.738Z,20.20
2023-02-15T04:15:11.608Z,24.38
2023-02-15T04:17:40.248Z,21.42
2023-02-15T04:20:28.416Z,19.42
2023-02-15T04:23:15.571Z,22.30
2023-02-15T04:25:44.073Z,19.27
2023-02-15T04:28:12.316Z,18.45
2023-02-15T04:30:40.596Z,18.52
2023-02-15T04:33:08.917Z,27.88
2023-02-15T04:35:37.225Z,17.38
2023-02-15T04:38:06.942Z,15.32
2023-02-15T04:40:35.166Z,15.48
2023-02-15T04:43:03.502Z,14.70
2023-02-15T04:45:31.876Z,19.25
2023-02-15T04:48:00.528Z,16.27
2023-02-15T04:50:28.825Z,20.55
2023-02-15T04:52:57.087Z,21.55
2023-02-15T04:55:27.951Z,17.02
2023-02-15T04:57:56.273Z,14.02
2023-02-15T05:00:25.027Z,16.70
2023-02-15T05:02:53.482Z,22.05
2023-02-15T05:05:22.193Z,16.15
2023-02-15T05:07:50.636Z,17.48
2023-02-15T05:10:19.260Z,23.30
2023-02-15T05:12:49.134Z,20.40
2023-02-15T05:15:17.709Z,22.60
2023-02-15T05:17:45.951Z,23.65
2023-02-15T05:20:14.925Z,21.67
2023-02-15T05:22:43.182Z,22.63
2023-02-15T05:25:29.314Z,20.38
2023-02-15T05:28:16.467Z,20.55
2023-02-15T05:30:45.016Z,23.98
2023-02-15T05:33:13.361Z,28.85
2023-02-15T05:35:42.210Z,21.60
2023-02-15T05:38:10.702Z,18.02
2023-02-15T05:40:39.126Z,20.58
2023-02-15T05:43:08.913Z,26.30
2023-02-15T05:45:37.286Z,19.60
2023-02-15T05:48:05.968Z,28.88
2023-02-15T05:50:34.282Z,26.92
2023-02-15T05:53:02.634Z,26.25
2023-02-15T05:55:30.887Z,15.02
2023-02-15T05:57:59.325Z,33.75
2023-02-15T06:00:29.043Z,25.20
2023-02-15T06:02:57.605Z,20.83
2023-02-15T06:05:26.028Z,20.08
2023-02-15T06:07:54.454Z,16.33
2023-02-15T06:10:22.929Z,26.00
2023-02-15T06:12:51.374Z,16.75
2023-02-15T06:15:19.949Z,19.95
2023-02-15T06:17:49.627Z,15.38
2023-02-15T06:20:18.466Z,27.00
2023-02-15T06:22:46.738Z,17.98
2023-02-15T06:25:15.340Z,19.48
2023-02-15T06:27:44.678Z,22.15
2023-02-15T06:30:15.406Z,27.70
2023-02-15T06:32:43.814Z,26.55
2023-02-15T06:35:13.791Z,19.80
2023-02-15T06:37:42.636Z,17.20
2023-02-15T06:40:11.848Z,17.77
2023-02-15T06:42:40.121Z,25.90
2023-02-15T06:45:09.764Z,14.20
2023-02-15T06:47:38.154Z,29.05
2023-02-15T06:50:11.790Z,35.47
2023-02-15T06:52:41.389Z,23.63
2023-02-15T06:55:10.062Z,15.95
2023-02-15T06:57:38.496Z,16.23
2023-02-15T07:00:09.194Z,24.23
2023-02-15T07:02:37.524Z,38.17
2023-02-15T07:05:06.094Z,19.45
2023-02-15T07:07:34.656Z,18.33
2023-02-15T07:10:05.041Z,26.10
2023-02-15T07:12:45.443Z,25.52
2023-02-15T07:15:16.703Z,22.05
2023-02-15T07:17:45.809Z,25.50
2023-02-15T07:20:18.085Z,22.88
2023-02-15T07:22:46.928Z,36.97
2023-02-15T07:25:17.153Z,32.17
2023-02-15T07:27:45.918Z,25.25
2023-02-15T07:30:17.442Z,28.45
2023-02-15T07:33:05.445Z,22.77
2023-02-15T07:35:34.455Z,23.30
2023-02-15T07:38:03.356Z,23.98
2023-02-15T07:40:33.181Z,17.20
2023-02-15T07:43:01.648Z,15.88
2023-02-15T07:45:30.234Z,20.92
2023-02-15T07:47:58.724Z,18.10
2023-02-15T07:50:27.095Z,15.90
2023-02-15T07:52:55.896Z,19.52
2023-02-15T07:55:24.427Z,16.30
2023-02-15T07:57:55.018Z,18.63
2023-02-15T08:00:25.835Z,16.92
2023-02-15T08:03:10.876Z,23.33
2023-02-15T08:05:39.967Z,20.65
2023-02-15T08:08:09.894Z,20.25
2023-02-15T08:10:58.088Z,21.35
2023-02-15T08:13:27.764Z,19.20
2023-02-15T08:15:56.144Z,21.58
2023-02-15T08:18:24.586Z,18.10
2023-02-15T08:20:52.868Z,30.02
2023-02-15T08:23:21.240Z,22.17
2023-02-15T08:25:49.531Z,26.92
2023-02-15T08:28:18.096Z,24.30
2023-02-15T08:30:48.029Z,20.80
2023-02-15T08:33:18.957Z,29.15
2023-02-15T08:35:47.899Z,27.15
2023-02-15T08:38:16.517Z,33.15
2023-02-15T08:40:44.783Z,26.73
2023-02-15T08:43:13.072Z,29.50
2023-02-15T08:45:41.411Z,26.90
2023-02-15T08:48:11.171Z,27.48
2023-02-15T08:50:39.522Z,30.55
2023-02-15T08:53:08.134Z,27.02
2023-02-15T08:55:36.412Z,31.92
2023-02-15T08:58:04.787Z,33.97
2023-02-15T09:00:33.246Z,29.45
2023-02-15T09:03:01.873Z,30.58
2023-02-15T09:05:31.615Z,31.20
2023-02-15T09:07:59.884Z,33.72
2023-02-15T09:10:28.166Z,34.80
2023-02-15T09:12:56.587Z,33.67
2023-02-15T09:15:25.022Z,37.15
2023-02-15T09:17:53.542Z,41.70
2023-02-15T09:20:22.806Z,28.70
2023-02-15T09:22:57.606Z,28.25
2023-02-15T09:25:27.075Z,28.73
2023-02-15T09:27:55.835Z,29.33
2023-02-15T09:30:24.373Z,28.17
2023-02-15T09:32:52.838Z,26.70
2023-02-15T09:35:21.263Z,32.88
2023-02-15T09:37:49.470Z,27.33
2023-02-15T09:40:20.261Z,32.08
2023-02-15T09:43:05.777Z,28.88
2023-02-15T09:46:04.769Z,23.98
2023-02-15T09:48:43.964Z,26.40
2023-02-15T09:51:48.553Z,24.95
2023-02-15T09:54:40.574Z,28.15
2023-02-15T09:57:18.748Z,27.20
2023-02-15T10:00:00.282Z,27.17
2023-02-15T10:02:45.986Z,24.05
2023-02-15T10:05:28.886Z,25.38
2023-02-15T10:08:40.735Z,30.90
2023-02-15T10:11:34.906Z,29.73
2023-02-15T10:14:21.328Z,30.58
2023-02-15T10:16:58.762Z,32.83
2023-02-15T10:19:36.983Z,38.72
2023-02-15T10:22:23.300Z,36.05
2023-02-15T10:25:13.087Z,35.17
2023-02-15T10:27:48.281Z,30.20
2023-02-15T10:30:21.278Z,32.50
2023-02-15T10:33:01.775Z,43.72
2023-02-15T10:35:39.957Z,32.28
2023-02-15T10:38:33.423Z,30.70
2023-02-15T10:41:17.853Z,28.85
2023-02-15T10:44:10.259Z,29.77
2023-02-15T10:46:59.852Z,31.45
2023-02-15T10:49:52.455Z,27.83
2023-02-15T10:52:34.433Z,31.02
2023-02-15T10:55:14.681Z,28.38
2023-02-15T10:57:54.138Z,25.08
2023-02-15T11:00:32.200Z,36.58
2023-02-15T11:03:29.501Z,27.20
2023-02-15T11:06:07.684Z,26.25
2023-02-15T11:08:42.563Z,23.75
2023-02-15T11:11:14.934Z,25.25
2023-02-15T11:13:50.103Z,27.50
2023-02-15T11:16:24.032Z,28.05
2023-02-15T11:18:59.356Z,26.58
2023-02-15T11:21:34.593Z,28.85
2023-02-15T11:24:03.312Z,30.88
2023-02-15T11:26:38.721Z,29.63
2023-02-15T11:29:14.498Z,32.78
2023-02-15T11:31:47.805Z,29.23
2023-02-15T11:34:25.779Z,29.73
2023-02-15T11:36:58.014Z,30.05
2023-02-15T11:39:29.464Z,31.40
2023-02-15T11:42:04.430Z,29.73
2023-02-15T11:47:03.586Z,29.55
2023-02-15T11:49:35.805Z,25.02
2023-02-15T11:52:09.256Z,28.25
2023-02-15T11:54:43.678Z,26.40
2023-02-15T11:57:16.824Z,25.67
2023-02-15T11:59:52.006Z,26.73
2023-02-15T12:02:23.861Z,29.80
2023-02-15T12:04:58.644Z,24.67
2023-02-15T12:10:07.991Z,28.05
2023-02-15T12:12:38.163Z,24.83
2023-02-15T12:15:09.537Z,23.55
2023-02-15T12:17:42.991Z,25.20
2023-02-15T12:20:30.049Z,22.85
2023-02-15T12:23:04.775Z,24.88
2023-02-15T12:25:42.164Z,28.65
2023-02-15T12:28:26.965Z,37.50
2023-02-15T12:30:57.139Z,31.08
2023-02-15T12:33:32.437Z,27.15
2023-02-15T12:36:10.798Z,27.65
2023-02-15T12:38:39.733Z,29.40
2023-02-15T12:41:25.819Z,31.27
2023-02-15T12:44:14.430Z,28.77
2023-02-15T12:46:43.342Z,31.33
2023-02-15T12:49:21.380Z,26.88
2023-02-15T12:51:53.881Z,29.75
2023-02-15T12:54:41.847Z,31.45
2023-02-15T12:57:26.891Z,29.23
2023-02-15T12:59:59.970Z,25.08
2023-02-15T13:02:33.562Z,28.75
2023-02-15T13:05:19.296Z,29.45
2023-02-15T13:07:52.590Z,27.45
2023-02-15T13:10:31.324Z,29.70
2023-02-15T13:13:00.511Z,30.73
2023-02-15T13:15:36.697Z,29.60
2023-02-15T13:18:13.002Z,27.23
2023-02-15T13:20:42.657Z,23.20
2023-02-15T13:23:28.429Z,28.65
2023-02-15T13:26:00.531Z,26.27
2023-02-15T13:28:39.483Z,25.38
2023-02-15T13:31:16.240Z,28.83
2023-02-15T13:33:48.743Z,28.33
2023-02-15T13:36:26.070Z,22.38
2023-02-15T13:39:11.642Z,27.63
2023-02-15T13:41:57.944Z,27.90
2023-02-15T13:44:52.156Z,22.27
2023-02-15T13:47:27.865Z,26.88
2023-02-15T13:50:19.564Z,27.15
2023-02-15T13:52:54.411Z,26.52
2023-02-15T13:55:42.876Z,23.17
2023-02-15T13:59:00.649Z,21.48
2023-02-15T14:01:39.925Z,22.45
2023-02-15T14:04:39.910Z,23.05
2023-02-15T14:07:35.800Z,24.35
2023-02-15T14:10:25.069Z,20.17
2023-02-15T14:13:27.379Z,23.65
2023-02-15T14:16:03.115Z,22.85
2023-02-15T14:18:42.131Z,18.30
2023-02-15T14:21:18.310Z,23.85
2023-02-15T14:24:09.110Z,19.80
2023-02-15T14:26:47.884Z,21.45
2023-02-15T14:29:30.251Z,21.85
2023-02-15T14:32:03.740Z,26.88
2023-02-15T14:34:40.191Z,21.17
2023-02-15T14:37:08.621Z,26.98
2023-02-15T14:40:06.931Z,23.40
2023-02-15T14:42:45.047Z,20.35
2023-02-15T14:45:24.960Z,21.38
2023-02-15T14:48:06.641Z,21.15
2023-02-15T14:50:45.588Z,26.70
2023-02-15T14:53:39.593Z,25.58
2023-02-15T14:56:27.882Z,23.52
2023-02-15T14:59:16.331Z,22.45
2023-02-15T15:02:00.150Z,19.70
2023-02-15T15:04:33.524Z,21.77
2023-02-15T15:07:10.373Z,31.25
2023-02-15T15:09:41.635Z,18.08
2023-02-15T15:12:39.644Z,21.88
2023-02-15T15:15:09.944Z,18.75
2023-02-15T15:18:02.565Z,19.83
2023-02-15T15:20:48.623Z,24.77
2023-02-15T15:23:45.843Z,24.60
2023-02-15T15:29:03.440Z,18.08
2023-02-15T15:31:46.638Z,20.88
2023-02-15T15:35:01.796Z,27.67
2023-02-15T15:37:58.587Z,17.77
2023-02-15T15:41:00.389Z,32.95
2023-02-15T15:44:23.088Z,15.93
2023-02-15T15:47:23.577Z,23.65
2023-02-15T15:49:58.414Z,20.10
2023-02-15T15:52:28.572Z,19.17
2023-02-15T15:55:07.200Z,29.27
2023-02-15T15:57:42.785Z,21.20
2023-02-15T16:00:32.786Z,22.13
2023-02-15T16:03:01.247Z,21.63
2023-02-15T16:05:38.594Z,21.90
2023-02-15T16:08:08.257Z,20.45
2023-02-15T16:10:39.056Z,28.00
2023-02-15T16:13:08.685Z,24.10
2023-02-15T16:15:46.031Z,22.83
2023-02-15T16:18:18.604Z,19.60
2023-02-15T16:20:55.122Z,30.67
2023-02-15T16:24:01.797Z,31.17
2023-02-15T16:26:58.513Z,21.63
2023-02-15T16:29:32.332Z,21.75
2023-02-15T16:32:03.560Z,27.52
2023-02-15T16:34:33.525Z,23.42
2023-02-15T16:37:24.405Z,22.08
2023-02-15T16:39:52.968Z,23.23
2023-02-15T16:42:21.592Z,27.90
2023-02-15T16:44:57.042Z,25.35
2023-02-15T16:47:28.462Z,20.55
2023-02-15T16:50:03.023Z,23.90
2023-02-15T16:52:33.239Z,23.83
2023-02-15T16:55:04.854Z,24.10
2023-02-15T16:57:37.620Z,32.72
2023-02-15T17:00:09.387Z,34.47
2023-02-15T17:02:55.061Z,28.00
2023-02-15T17:05:25.101Z,29.60
2023-02-15T17:08:18.171Z,33.58
2023-02-15T17:11:04.397Z,28.23
2023-02-15T17:13:33.340Z,27.35
2023-02-15T17:16:32.594Z,34.42
2023-02-15T17:19:02.119Z,30.63
2023-02-15T17:21:35.215Z,30.85
2023-02-15T17:24:06.259Z,27.65
2023-02-15T17:26:38.222Z,27.02
2023-02-15T17:29:24.436Z,31.65
2023-02-15T17:31:54.524Z,38.58
2023-02-15T17:34:47.148Z,37.33
2023-02-15T17:37:26.832Z,35.33
2023-02-15T17:39:57.144Z,32.58
2023-02-15T17:42:25.660Z,33.03
2023-02-15T17:44:53.884Z,26.45
2023-02-15T17:47:25.739Z,31.30
2023-02-15T17:49:55.530Z,31.40
2023-02-15T17:52:24.287Z,43.67
2023-02-15T17:55:10.376Z,31.15
2023-02-15T17:57:40.057Z,35.00
2023-02-15T18:00:29.380Z,29.20
2023-02-15T18:03:15.324Z,27.15
2023-02-15T18:06:01.977Z,31.85
2023-02-15T18:08:48.330Z,36.40
2023-02-15T18:11:34.300Z,29.73
2023-02-15T18:14:04.415Z,36.90
2023-02-15T18:16:36.788Z,34.67
2023-02-15T18:19:06.487Z,33.92
2023-02-15T18:21:35.151Z,40.40
2023-02-15T18:24:03.412Z,35.17
2023-02-15T18:26:31.811Z,45.58
2023-02-15T18:29:00.220Z,35.30
2023-02-15T18:31:30.089Z,37.63
2023-02-15T18:34:00.973Z,36.38
2023-02-15T18:36:33.253Z,38.35
2023-02-15T18:39:07.779Z,31.88
2023-02-15T18:41:37.267Z,37.28
2023-02-15T18:44:11.564Z,36.15
2023-02-15T18:46:41.195Z,58.17
2023-02-15T18:49:09.658Z,50.60
2023-02-15T18:51:40.199Z,63.03
2023-02-15T18:54:19.245Z,50.97
2023-02-15T18:56:54.356Z,33.92
2023-02-15T18:59:24.178Z,38.35
2023-02-15T19:01:54.172Z,34.13
2023-02-15T19:04:24.877Z,30.20
2023-02-15T19:06:54.100Z,31.85
2023-02-15T19:09:25.589Z,31.67
2023-02-15T19:11:56.511Z,32.17
2023-02-15T19:14:29.108Z,29.60
2023-02-15T19:17:00.623Z,29.08
2023-02-15T19:19:29.091Z,28.38
2023-02-15T19:21:57.588Z,29.45
2023-02-15T19:24:40.382Z,31.85
2023-02-15T19:27:15.061Z,39.22
2023-02-15T19:29:43.268Z,30.80
2023-02-15T19:32:13.228Z,26.92
2023-02-15T19:34:41.638Z,29.30
2023-02-15T19:37:23.814Z,31.85
2023-02-15T19:39:52.175Z,47.03
2023-02-15T19:42:24.904Z,32.05
2023-02-15T19:44:54.519Z,49.10
2023-02-15T19:47:24.447Z,31.50
2023-02-15T19:49:52.750Z,36.70
2023-02-15T19:52:24.173Z,35.08
2023-02-15T19:54:55.658Z,34.83
2023-02-15T19:57:24.876Z,42.45
2023-02-15T19:59:53.200Z,32.00
2023-02-15T20:02:22.866Z,34.63
2023-02-15T20:04:51.328Z,38.97
2023-02-15T20:07:26.786Z,44.30
2023-02-15T20:09:55.288Z,39.53
2023-02-15T20:12:26.870Z,35.00
2023-02-15T20:14:55.215Z,37.15
2023-02-15T20:17:24.939Z,32.85
2023-02-15T20:19:53.326Z,41.40
2023-02-15T20:22:27.292Z,40.78
2023-02-15T20:24:57.245Z,57.03
2023-02-15T20:27:26.433Z,38.30
2023-02-15T20:29:56.720Z,39.63
2023-02-15T20:32:27.022Z,37.13
2023-02-15T20:34:55.456Z,34.78
2023-02-15T20:37:28.611Z,44.60
2023-02-15T20:39:57.125Z,41.95
2023-02-15T20:42:25.441Z,36.28
2023-02-15T20:44:53.740Z,36.65
2023-02-15T20:47:22.038Z,43.80
2023-02-15T20:49:52.706Z,41.70
2023-02-15T20:52:22.024Z,45.10
2023-02-15T20:54:50.502Z,39.70
2023-02-15T20:57:18.774Z,44.80
2023-02-15T20:59:47.187Z,40.20
2023-02-15T21:02:23.026Z,44.15
2023-02-15T21:04:53.035Z,37.33
2023-02-15T21:07:23.236Z,42.83
2023-02-15T21:09:52.653Z,42.97
2023-02-15T21:12:23.664Z,39.85
2023-02-15T21:14:52.591Z,41.22
2023-02-15T21:17:21.040Z,41.53
2023-02-15T21:19:49.838Z,38.83
2023-02-15T21:22:21.463Z,44.22
2023-02-15T21:24:54.872Z,39.08
2023-02-15T21:27:23.603Z,49.60
2023-02-15T21:29:52.255Z,39.10
2023-02-15T21:32:20.722Z,43.50
2023-02-15T21:34:49.111Z,48.28
2023-02-15T21:37:30.912Z,43.30
2023-02-15T21:39:59.303Z,38.25
2023-02-15T21:42:47.422Z,37.25
2023-02-15T21:45:35.281Z,34.88
2023-02-15T21:48:04.390Z,40.88
2023-02-15T21:50:50.527Z,42.47
2023-02-15T21:53:24.581Z,43.42
2023-02-15T21:55:56.344Z,36.58
2023-02-15T21:58:26.955Z,42.53
2023-02-15T22:00:56.595Z,32.67
2023-02-15T22:03:27.916Z,37.78
2023-02-15T22:05:56.281Z,32.70
2023-02-15T22:08:26.455Z,34.28
2023-02-15T22:10:55.767Z,37.33
2023-02-15T22:13:29.333Z,31.98
2023-02-15T22:15:58.845Z,30.83
2023-02-15T22:18:33.826Z,36.88
2023-02-15T22:23:33.973Z,33.88
2023-02-15T22:26:06.212Z,39.28
2023-02-15T22:28:38.468Z,38.10
2023-02-15T22:31:13.191Z,31.70
2023-02-15T22:33:42.131Z,32.00
2023-02-15T22:36:24.074Z,46.47
2023-02-15T22:38:54.473Z,39.70
2023-02-15T22:41:26.823Z,38.05
2023-02-15T22:43:55.558Z,44.53
2023-02-15T22:46:26.039Z,45.22
2023-02-15T22:48:54.883Z,41.80
2023-02-15T22:51:25.580Z,36.85
2023-02-15T22:53:55.567Z,36.50
2023-02-15T22:56:31.462Z,34.25
2023-02-15T22:59:04.151Z,32.28
2023-02-15T23:01:35.016Z,38.03
2023-02-15T23:04:04.490Z,36.70
2023-02-15T23:06:34.196Z,30.10
2023-02-15T23:09:03.888Z,34.90
2023-02-15T23:11:32.150Z,32.55
2023-02-15T23:14:03.073Z,22.88
2023-02-15T23:16:32.541Z,27.63
2023-02-15T23:19:00.952Z,29.98
2023-02-15T23:21:31.946Z,27.67
2023-02-15T23:24:14.814Z,26.77
2023-02-15T23:26:43.076Z,25.15
2023-02-15T23:29:16.329Z,24.65
2023-02-15T23:31:48.300Z,28.17
2023-02-15T23:34:20.635Z,27.65
2023-02-15T23:36:49.601Z,26.20
2023-02-15T23:39:41.222Z,28.42
2023-02-15T23:42:13.598Z,29.40
2023-02-15T23:44:44.072Z,28.80
2023-02-15T23:47:42.480Z,25.13
2023-02-15T23:50:19.327Z,28.90
2023-02-15T23:52:47.816Z,23.67
2023-02-15T23:55:17.839Z,25.63
2023-02-15T23:57:46.676Z,30.58
